| time (UTC) | temp F | wind direction | speed knots | gust knots | rain 1hr in | rain 24hr in | rain mn in | humidity % | barometer mb |
| 20260507143209 | 56 | 231 | 0.9 | 1.7 | 0.00 | 0.00 | 0.00 | 51 | 956.0 |
| 20260507142705 | 56 | 306 | 1.7 | 4.3 | 0.00 | 0.00 | 0.00 | 50 | 955.9 |
| 20260507142202 | 56 | 308 | 3.5 | 4.3 | 0.00 | 0.00 | 0.00 | 52 | 956.1 |
| 20260507141658 | 55 | 2 | 1.7 | 2.6 | 0.00 | 0.00 | 0.00 | 53 | 955.9 |
| 20260507141155 | 55 | 301 | 1.7 | 1.7 | 0.00 | 0.00 | 0.00 | 54 | 956.0 |
| 20260507140651 | 54 | 321 | 0.9 | 0.9 | 0.00 | 0.00 | 0.00 | 56 | 955.8 |
| 20260507140149 | 54 | 323 | 0.9 | 0.9 | 0.00 | 0.00 | 0.00 | 55 | 955.9 |
| 20260507135646 | 54 | 20 | 0.9 | 1.7 | 0.00 | 0.00 | 0.00 | 56 | 955.9 |
| 20260507135143 | 54 | 15 | 0.9 | 0.9 | 0.00 | 0.00 | 0.00 | 56 | 955.7 |
| 20260507134639 | 53 | 330 | 2.6 | 4.3 | 0.00 | 0.00 | 0.00 | 56 | 955.8 |
| 20260507134136 | 53 | 26 | 0.9 | 0.9 | 0.00 | 0.00 | 0.00 | 57 | 955.7 |
| 20260507133631 | 53 | 326 | 2.6 | 4.3 | 0.00 | 0.00 | 0.00 | 58 | 955.7 |
| 20260507133129 | 53 | 19 | 1.7 | 1.7 | 0.00 | 0.00 | 0.00 | 58 | 955.6 |
| 20260507132626 | 52 | 256 | 1.7 | 1.7 | 0.00 | 0.00 | 0.00 | 59 | 955.6 |
| 20260507132122 | 52 | 217 | 0.9 | 1.7 | 0.00 | 0.00 | 0.00 | 59 | 955.5 |
| 20260507131619 | 52 | 5 | 1.7 | 1.7 | 0.00 | 0.00 | 0.00 | 60 | 955.5 |
| 20260507131117 | 51 | 28 | 1.7 | 2.6 | 0.00 | 0.00 | 0.00 | 60 | 955.5 |
| 20260507130613 | 51 | 339 | 1.7 | 1.7 | 0.00 | 0.00 | 0.00 | 61 | 955.6 |
| 20260507130111 | 51 | 225 | 0.9 | 1.7 | 0.00 | 0.00 | 0.00 | 62 | 955.5 |
| 20260507125610 | 51 | 172 | 0.9 | 0.9 | 0.00 | 0.00 | 0.00 | 61 | 955.5 |
| 20260507125107 | 51 | 330 | 4.3 | 7.8 | 0.00 | 0.00 | 0.00 | 61 | 955.4 |
| 20260507124603 | 51 | 311 | 0.9 | 1.7 | 0.00 | 0.00 | 0.00 | 61 | 955.2 |
| 20260507124101 | 51 | 341 | 1.7 | 1.7 | 0.00 | 0.00 | 0.00 | 61 | 955.4 |
| 20260507123559 | 51 | 222 | 1.7 | 2.6 | 0.00 | 0.00 | 0.00 | 61 | 955.0 |
| 20260507123055 | 51 | 139 | 2.6 | 5.2 | 0.00 | 0.00 | 0.00 | 61 | 955.1 |
| 20260507122551 | 51 | 330 | 1.7 | 1.7 | 0.00 | 0.00 | 0.00 | 61 | 955.0 |
| 20260507122047 | 51 | 235 | 1.7 | 1.7 | 0.00 | 0.00 | 0.00 | 61 | 955.0 |
| 20260507121543 | 51 | 208 | 0.9 | 1.7 | 0.00 | 0.00 | 0.00 | 61 | 955.1 |
| 20260507121039 | 51 | 331 | 0.9 | 1.7 | 0.00 | 0.00 | 0.00 | 61 | 955.0 |
| 20260507120535 | 51 | 144 | 0.9 | 1.7 | 0.00 | 0.00 | 0.00 | 61 | 954.6 |
| 20260507120032 | 51 | 341 | 0.0 | 0.9 | 0.00 | 0.00 | 0.00 | 61 | 954.8 |
| 20260507115528 | 52 | 267 | 1.7 | 2.6 | 0.00 | 0.00 | 0.00 | 61 | 954.5 |
| 20260507115024 | 52 | 306 | 1.7 | 1.7 | 0.00 | 0.00 | 0.00 | 60 | 954.7 |
| 20260507114520 | 52 | 8 | 0.9 | 0.9 | 0.00 | 0.00 | 0.00 | 60 | 954.6 |
| 20260507114018 | 53 | 58 | 0.9 | 0.9 | 0.00 | 0.00 | 0.00 | 59 | 954.6 |
| 20260507113515 | 53 | 288 | 2.6 | 2.6 | 0.00 | 0.00 | 0.00 | 59 | 954.6 |
| 20260507113012 | 53 | 359 | 1.7 | 1.7 | 0.00 | 0.00 | 0.00 | 59 | 954.5 |
| 20260507112510 | 53 | 346 | 0.9 | 0.9 | 0.00 | 0.00 | 0.00 | 58 | 954.4 |
| 20260507112006 | 54 | 334 | 2.6 | 5.2 | 0.00 | 0.00 | 0.00 | 58 | 954.4 |
| 20260507111504 | 54 | 320 | 2.6 | 4.3 | 0.00 | 0.00 | 0.00 | 57 | 954.4 |
| 20260507110959 | 54 | 290 | 0.9 | 1.7 | 0.00 | 0.00 | 0.00 | 57 | 954.4 |
| 20260507110456 | 54 | 336 | 0.0 | 0.9 | 0.00 | 0.00 | 0.00 | 58 | 954.1 |
| 20260507105952 | 54 | 299 | 0.9 | 0.9 | 0.00 | 0.00 | 0.00 | 60 | 954.3 |
| 20260507105449 | 54 | 136 | 1.7 | 1.7 | 0.00 | 0.00 | 0.00 | 60 | 954.3 |
| 20260507104946 | 54 | 237 | 1.7 | 1.7 | 0.00 | 0.00 | 0.00 | 60 | 954.1 |
| 20260507104443 | 54 | 65 | 0.9 | 0.9 | 0.00 | 0.00 | 0.00 | 60 | 954.1 |
| 20260507103938 | 54 | 233 | 0.9 | 1.7 | 0.00 | 0.00 | 0.00 | 60 | 954.1 |
| 20260507103436 | 54 | 170 | 0.9 | 0.9 | 0.00 | 0.00 | 0.00 | 60 | 954.0 |
| 20260507102932 | 54 | 245 | 0.9 | 2.6 | 0.00 | 0.00 | 0.00 | 61 | 954.2 |
| 20260507102429 | 53 | 226 | 0.9 | 0.9 | 0.00 | 0.00 | 0.00 | 62 | 954.2 |
| 20260507101925 | 54 | 334 | 0.0 | 0.9 | 0.00 | 0.00 | 0.00 | 62 | 954.2 |
| 20260507101420 | 53 | 235 | 0.9 | 1.7 | 0.00 | 0.00 | 0.00 | 62 | 954.1 |
| 20260507100917 | 53 | 310 | 1.7 | 2.6 | 0.00 | 0.00 | 0.00 | 62 | 954.1 |
| 20260507100415 | 53 | 122 | 0.9 | 0.9 | 0.00 | 0.00 | 0.00 | 63 | 954.0 |
| 20260507095913 | 53 | 223 | 0.9 | 0.9 | 0.00 | 0.00 | 0.00 | 64 | 954.0 |
| 20260507095409 | 53 | 156 | 0.9 | 0.9 | 0.00 | 0.00 | 0.00 | 64 | 954.2 |
| 20260507094907 | 53 | 328 | 0.0 | 0.9 | 0.00 | 0.00 | 0.00 | 64 | 954.0 |
| 20260507094403 | 53 | 244 | 0.0 | 0.9 | 0.00 | 0.00 | 0.00 | 64 | 954.0 |
| 20260507093900 | 53 | 43 | 0.0 | 0.9 | 0.00 | 0.00 | 0.00 | 64 | 954.0 |
| 20260507093358 | 53 | 159 | 0.0 | 0.0 | 0.00 | 0.00 | 0.00 | 64 | 953.9 |
| 20260507092856 | 53 | 296 | 0.0 | 0.9 | 0.00 | 0.00 | 0.00 | 64 | 953.8 |
| 20260507092352 | 53 | 275 | 0.9 | 0.9 | 0.00 | 0.00 | 0.00 | 64 | 953.9 |
| 20260507091848 | 53 | 101 | 0.0 | 0.0 | 0.00 | 0.00 | 0.00 | 64 | 954.0 |
| 20260507091345 | 53 | 298 | 0.0 | 0.9 | 0.00 | 0.00 | 0.00 | 64 | 953.9 |
| 20260507090840 | 53 | 263 | 0.9 | 0.9 | 0.00 | 0.00 | 0.00 | 64 | 953.9 |
| 20260507090337 | 53 | 66 | 0.0 | 0.0 | 0.00 | 0.00 | 0.00 | 63 | 953.8 |
| 20260507085834 | 53 | 65 | 0.0 | 0.0 | 0.00 | 0.00 | 0.00 | 63 | 953.9 |
| 20260507085331 | 53 | 11 | 0.0 | 0.0 | 0.00 | 0.00 | 0.00 | 62 | 953.9 |
| 20260507084828 | 53 | 68 | 0.0 | 0.0 | 0.00 | 0.00 | 0.00 | 62 | 953.7 |
| 20260507084324 | 53 | 317 | 0.0 | 0.0 | 0.00 | 0.00 | 0.00 | 62 | 953.6 |
| 20260507083822 | 53 | 337 | 0.0 | 0.0 | 0.00 | 0.00 | 0.00 | 61 | 953.6 |
| 20260507083318 | 54 | 37 | 0.0 | 0.0 | 0.00 | 0.00 | 0.00 | 61 | 954.0 |
| 20260507082814 | 54 | 12 | 0.0 | 0.0 | 0.00 | 0.00 | 0.00 | 61 | 953.9 |
| 20260507082310 | 54 | 235 | 0.9 | 1.7 | 0.00 | 0.00 | 0.00 | 61 | 953.7 |
| 20260507081808 | 54 | 301 | 0.0 | 0.0 | 0.00 | 0.00 | 0.00 | 61 | 953.7 |
| 20260507081303 | 54 | 83 | 0.0 | 0.0 | 0.00 | 0.00 | 0.00 | 61 | 953.7 |
| 20260507080800 | 54 | 80 | 0.0 | 0.0 | 0.00 | 0.00 | 0.00 | 62 | 953.7 |
| 20260507080257 | 54 | 127 | 0.0 | 0.9 | 0.00 | 0.00 | 0.00 | 62 | 953.7 |
| 20260507075752 | 54 | 233 | 0.0 | 0.0 | 0.00 | 0.00 | 0.00 | 62 | 953.7 |
| 20260507075248 | 54 | 68 | 0.0 | 0.0 | 0.00 | 0.00 | 0.00 | 62 | 953.9 |
| 20260507074744 | 55 | 358 | 0.0 | 0.0 | 0.00 | 0.00 | 0.00 | 62 | 954.0 |
| 20260507074243 | 55 | 18 | 0.0 | 0.0 | 0.00 | 0.00 | 0.00 | 61 | 953.8 |
| 20260507073739 | 55 | 299 | 0.0 | 0.9 | 0.00 | 0.00 | 0.00 | 60 | 954.0 |
| 20260507073236 | 55 | 37 | 0.0 | 0.0 | 0.00 | 0.00 | 0.00 | 60 | 953.9 |
| 20260507072734 | 56 | 254 | 0.9 | 1.7 | 0.00 | 0.00 | 0.00 | 60 | 954.0 |
| 20260507072231 | 56 | 87 | 0.0 | 0.0 | 0.00 | 0.00 | 0.00 | 58 | 953.7 |
| 20260507071728 | 56 | 31 | 0.0 | 0.0 | 0.00 | 0.00 | 0.00 | 57 | 953.7 |
| 20260507071224 | 56 | 40 | 0.0 | 0.0 | 0.00 | 0.00 | 0.00 | 56 | 953.8 |
| 20260507070722 | 56 | 133 | 0.0 | 0.9 | 0.00 | 0.00 | 0.00 | 55 | 953.6 |
| 20260507070219 | 56 | 49 | 0.0 | 0.0 | 0.00 | 0.00 | 0.00 | 54 | 953.9 |
| 20260507065715 | 56 | 34 | 0.0 | 0.9 | 0.00 | 0.00 | 0.00 | 53 | 953.7 |
| 20260507065212 | 56 | 38 | 0.0 | 0.0 | 0.00 | 0.00 | 0.00 | 52 | 954.0 |
| 20260507064709 | 56 | 105 | 0.0 | 0.0 | 0.00 | 0.00 | 0.00 | 51 | 954.0 |
| 20260507064208 | 56 | 357 | 0.0 | 0.0 | 0.00 | 0.00 | 0.00 | 51 | 954.0 |
| 20260507063705 | 55 | 25 | 0.0 | 0.0 | 0.00 | 0.00 | 0.00 | 51 | 953.8 |
| 20260507063201 | 55 | 2 | 0.0 | 0.0 | 0.00 | 0.00 | 0.00 | 50 | 954.0 |
| 20260507062658 | 55 | 237 | 0.0 | 0.0 | 0.00 | 0.00 | 0.00 | 50 | 953.9 |
| 20260507062156 | 55 | 50 | 0.0 | 0.0 | 0.00 | 0.00 | 0.00 | 49 | 954.0 |
| 20260507061654 | 55 | 64 | 0.0 | 0.0 | 0.00 | 0.00 | 0.00 | 49 | 953.9 |
| 20260507061152 | 56 | 40 | 0.0 | 0.0 | 0.00 | 0.00 | 0.00 | 48 | 954.0 |
| 20260507060649 | 56 | 57 | 0.0 | 0.0 | 0.00 | 0.00 | 0.00 | 47 | 953.9 |
| 20260507060145 | 56 | 53 | 0.0 | 0.0 | 0.00 | 0.00 | 0.00 | 48 | 954.0 |
| 20260507055641 | 56 | 26 | 0.0 | 0.0 | 0.00 | 0.00 | 0.00 | 47 | 954.3 |
| 20260507055137 | 56 | 22 | 0.0 | 0.0 | 0.00 | 0.00 | 0.00 | 46 | 954.3 |
| 20260507054633 | 56 | 10 | 0.0 | 0.0 | 0.00 | 0.00 | 0.00 | 46 | 954.6 |
| 20260507054131 | 56 | 24 | 0.0 | 0.0 | 0.00 | 0.00 | 0.00 | 46 | 954.3 |
| 20260507053628 | 56 | 25 | 0.0 | 0.0 | 0.00 | 0.00 | 0.00 | 46 | 954.4 |
| 20260507053126 | 56 | 16 | 0.0 | 0.0 | 0.00 | 0.00 | 0.00 | 46 | 954.3 |
| 20260507052624 | 57 | 11 | 0.0 | 0.0 | 0.00 | 0.00 | 0.00 | 46 | 954.3 |
| 20260507052120 | 57 | 11 | 0.0 | 0.0 | 0.00 | 0.00 | 0.00 | 45 | 954.3 |
| 20260507051618 | 57 | 26 | 0.0 | 0.0 | 0.00 | 0.00 | 0.00 | 45 | 954.4 |
| 20260507051115 | 58 | 28 | 0.0 | 0.0 | 0.00 | 0.00 | 0.00 | 45 | 954.2 |
| 20260507050612 | 58 | 8 | 0.0 | 0.0 | 0.00 | 0.00 | 0.00 | 45 | 954.4 |
| 20260507050109 | 58 | 21 | 0.0 | 0.0 | 0.00 | 0.00 | 0.00 | 44 | 954.3 |
| 20260507045605 | 58 | 14 | 0.9 | 0.9 | 0.00 | 0.00 | 0.00 | 45 | 954.4 |
| 20260507045102 | 57 | 13 | 0.0 | 0.0 | 0.00 | 0.00 | 0.00 | 51 | 954.4 |
| 20260507044559 | 57 | 25 | 0.0 | 0.0 | 0.00 | 0.00 | 0.00 | 53 | 954.3 |
| 20260507044056 | 57 | 41 | 0.0 | 0.0 | 0.00 | 0.00 | 0.00 | 55 | 954.2 |
| 20260507043551 | 57 | 43 | 0.0 | 0.0 | 0.00 | 0.00 | 0.00 | 55 | 954.1 |
| 20260507043049 | 58 | 48 | 0.0 | 0.0 | 0.00 | 0.00 | 0.00 | 54 | 954.0 |
| 20260507042545 | 58 | 53 | 0.0 | 0.0 | 0.00 | 0.00 | 0.00 | 53 | 954.1 |
| 20260507042041 | 59 | 66 | 0.0 | 0.0 | 0.00 | 0.00 | 0.00 | 52 | 953.9 |
| 20260507041538 | 59 | 122 | 0.0 | 0.0 | 0.00 | 0.00 | 0.00 | 52 | 953.9 |
| 20260507041035 | 59 | 114 | 0.0 | 0.0 | 0.00 | 0.00 | 0.00 | 51 | 953.8 |
| 20260507040531 | 60 | 169 | 0.0 | 0.9 | 0.00 | 0.00 | 0.00 | 51 | 953.9 |
| 20260507040027 | 60 | 207 | 0.9 | 0.9 | 0.00 | 0.00 | 0.00 | 50 | 953.7 |
| 20260507035523 | 60 | 353 | 0.0 | 0.0 | 0.00 | 0.00 | 0.00 | 49 | 953.8 |
| 20260507035020 | 60 | 158 | 0.0 | 0.9 | 0.00 | 0.00 | 0.00 | 49 | 953.7 |
| 20260507034517 | 60 | 101 | 0.0 | 0.0 | 0.00 | 0.00 | 0.00 | 49 | 953.7 |
| 20260507034015 | 60 | 18 | 0.0 | 0.0 | 0.00 | 0.00 | 0.00 | 49 | 953.5 |
| 20260507033513 | 60 | 12 | 0.0 | 0.0 | 0.00 | 0.00 | 0.00 | 48 | 953.4 |
| 20260507033010 | 60 | 45 | 0.0 | 0.0 | 0.00 | 0.00 | 0.00 | 48 | 953.3 |
| 20260507032506 | 61 | 0 | 0.0 | 0.0 | 0.00 | 0.00 | 0.00 | 48 | 953.1 |
| 20260507032003 | 61 | 18 | 0.0 | 0.0 | 0.00 | 0.00 | 0.00 | 48 | 953.0 |
| 20260507031459 | 62 | 61 | 0.0 | 0.0 | 0.00 | 0.00 | 0.00 | 47 | 952.9 |
| 20260507030956 | 62 | 67 | 0.9 | 0.9 | 0.00 | 0.00 | 0.00 | 46 | 953.2 |
| 20260507030453 | 62 | 276 | 0.0 | 0.9 | 0.00 | 0.00 | 0.00 | 44 | 953.5 |
| 20260507025950 | 62 | 291 | 0.0 | 0.0 | 0.00 | 0.00 | 0.00 | 43 | 953.5 |
| 20260507025447 | 63 | 115 | 0.0 | 0.0 | 0.00 | 0.00 | 0.00 | 41 | 953.7 |
| 20260507024945 | 64 | 59 | 2.6 | 4.3 | 0.00 | 0.00 | 0.00 | 40 | 953.6 |
| 20260507024442 | 64 | 347 | 0.0 | 0.0 | 0.00 | 0.00 | 0.00 | 35 | 953.5 |
| 20260507023938 | 64 | 352 | 0.0 | 0.0 | 0.00 | 0.00 | 0.00 | 33 | 953.2 |
| 20260507023435 | 64 | 41 | 0.0 | 0.9 | 0.00 | 0.00 | 0.00 | 34 | 953.4 |
| 20260507022932 | 64 | 93 | 0.9 | 0.9 | 0.00 | 0.00 | 0.00 | 31 | 953.3 |
| 20260507022429 | 64 | 46 | 0.0 | 0.0 | 0.00 | 0.00 | 0.00 | 31 | 953.4 |
| 20260507021924 | 64 | 146 | 1.7 | 1.7 | 0.00 | 0.00 | 0.00 | 31 | 953.4 |
| 20260507021420 | 64 | 65 | 0.0 | 0.0 | 0.00 | 0.00 | 0.00 | 29 | 952.9 |
| 20260507020918 | 64 | 59 | 0.0 | 0.0 | 0.00 | 0.00 | 0.00 | 29 | 953.1 |
| 20260507020414 | 64 | 95 | 0.0 | 0.9 | 0.00 | 0.00 | 0.00 | 29 | 953.0 |
| 20260507015912 | 64 | 148 | 0.0 | 0.0 | 0.00 | 0.00 | 0.00 | 29 | 953.1 |
| 20260507015410 | 64 | 22 | 0.0 | 0.0 | 0.00 | 0.00 | 0.00 | 30 | 953.3 |
| 20260507014906 | 64 | 8 | 0.0 | 0.0 | 0.00 | 0.00 | 0.00 | 30 | 953.1 |
| 20260507014402 | 64 | 41 | 0.0 | 0.0 | 0.00 | 0.00 | 0.00 | 29 | 952.9 |
| 20260507013859 | 65 | 34 | 0.0 | 0.0 | 0.00 | 0.00 | 0.00 | 29 | 952.8 |
| 20260507013356 | 65 | 38 | 0.0 | 0.0 | 0.00 | 0.00 | 0.00 | 29 | 953.0 |
| 20260507012854 | 65 | 53 | 0.0 | 0.0 | 0.00 | 0.00 | 0.00 | 28 | 952.7 |
| 20260507012349 | 65 | 41 | 0.0 | 0.0 | 0.00 | 0.00 | 0.00 | 29 | 952.7 |
| 20260507011847 | 66 | 52 | 0.0 | 0.0 | 0.00 | 0.00 | 0.00 | 28 | 952.6 |
| 20260507011344 | 66 | 43 | 0.0 | 0.0 | 0.00 | 0.00 | 0.00 | 27 | 952.7 |
| 20260507010837 | 66 | 60 | 0.0 | 0.9 | 0.00 | 0.00 | 0.00 | 28 | 952.6 |
| 20260507010333 | 66 | 35 | 0.0 | 0.0 | 0.00 | 0.00 | 0.00 | 27 | 952.6 |
| 20260507005831 | 66 | 43 | 0.0 | 0.9 | 0.00 | 0.00 | 0.00 | 28 | 952.7 |
| 20260507005327 | 66 | 65 | 0.0 | 0.0 | 0.00 | 0.00 | 0.00 | 28 | 952.7 |
| 20260507004824 | 67 | 74 | 0.0 | 0.0 | 0.00 | 0.00 | 0.00 | 27 | 952.7 |
| 20260507004321 | 67 | 114 | 0.9 | 1.7 | 0.00 | 0.00 | 0.00 | 27 | 952.7 |
| 20260507003818 | 68 | 37 | 0.0 | 0.9 | 0.00 | 0.00 | 0.00 | 26 | 952.4 |
| 20260507003314 | 68 | 80 | 0.0 | 0.0 | 0.00 | 0.00 | 0.00 | 26 | 952.4 |
| 20260507002809 | 67 | 35 | 0.9 | 1.7 | 0.00 | 0.00 | 0.00 | 27 | 952.3 |
| 20260507002306 | 67 | 49 | 0.0 | 0.0 | 0.00 | 0.00 | 0.00 | 27 | 952.3 |
| 20260507001803 | 66 | 35 | 0.0 | 0.0 | 0.00 | 0.00 | 0.00 | 27 | 952.4 |
| 20260507001300 | 66 | 31 | 0.0 | 0.0 | 0.00 | 0.00 | 0.00 | 28 | 952.4 |
| 20260507000756 | 66 | 61 | 0.0 | 0.0 | 0.00 | 0.00 | 0.00 | 27 | 952.2 |
| 20260507000252 | 67 | 125 | 0.0 | 0.0 | 0.00 | 0.00 | 0.00 | 28 | 952.4 |
| 20260506235749 | 66 | 27 | 0.0 | 0.0 | 0.00 | 0.00 | 0.00 | 27 | 952.4 |
| 20260506235244 | 67 | 16 | 0.0 | 0.0 | 0.00 | 0.00 | 0.00 | 27 | 952.2 |
| 20260506234742 | 67 | 43 | 0.0 | 0.0 | 0.00 | 0.00 | 0.00 | 26 | 952.4 |
| 20260506234238 | 67 | 34 | 1.7 | 2.6 | 0.00 | 0.00 | 0.00 | 26 | 952.2 |
| 20260506233736 | 67 | 35 | 0.9 | 0.9 | 0.00 | 0.00 | 0.00 | 27 | 952.3 |
| 20260506233232 | 68 | 49 | 0.0 | 0.9 | 0.00 | 0.00 | 0.00 | 26 | 952.3 |
| 20260506232729 | 68 | 29 | 0.0 | 0.0 | 0.00 | 0.00 | 0.00 | 26 | 952.3 |
| 20260506232224 | 69 | 349 | 0.9 | 1.7 | 0.00 | 0.00 | 0.00 | 25 | 952.2 |
| 20260506231722 | 69 | 66 | 0.0 | 0.0 | 0.00 | 0.00 | 0.00 | 26 | 952.2 |
| 20260506231220 | 70 | 50 | 0.9 | 1.7 | 0.00 | 0.00 | 0.00 | 24 | 952.3 |
| 20260506230716 | 70 | 16 | 0.0 | 0.9 | 0.00 | 0.00 | 0.00 | 24 | 952.7 |
| 20260506230213 | 69 | 29 | 0.0 | 0.9 | 0.00 | 0.00 | 0.00 | 25 | 952.7 |
| 20260506225710 | 70 | 86 | 0.0 | 0.0 | 0.00 | 0.00 | 0.00 | 24 | 952.6 |
| 20260506225207 | 68 | 61 | 0.0 | 0.9 | 0.00 | 0.00 | 0.00 | 26 | 952.2 |
| 20260506224703 | 68 | 11 | 1.7 | 1.7 | 0.00 | 0.00 | 0.00 | 25 | 952.6 |
| 20260506224201 | 68 | 39 | 0.9 | 0.9 | 0.00 | 0.00 | 0.00 | 26 | 952.6 |
| 20260506223656 | 68 | 120 | 1.7 | 2.6 | 0.00 | 0.00 | 0.00 | 26 | 952.7 |
| 20260506223152 | 68 | 158 | 2.6 | 4.3 | 0.00 | 0.00 | 0.00 | 24 | 952.8 |
| 20260506222649 | 68 | 44 | 0.9 | 1.7 | 0.00 | 0.00 | 0.00 | 25 | 952.8 |
| 20260506222145 | 69 | 50 | 1.7 | 1.7 | 0.00 | 0.00 | 0.00 | 24 | 953.0 |
| 20260506221643 | 68 | 112 | 1.7 | 1.7 | 0.00 | 0.00 | 0.00 | 25 | 952.7 |
| 20260506221141 | 68 | 133 | 3.5 | 4.3 | 0.00 | 0.00 | 0.00 | 25 | 952.9 |
| 20260506220638 | 67 | 98 | 0.9 | 0.9 | 0.00 | 0.00 | 0.00 | 25 | 952.8 |
| 20260506220132 | 68 | 36 | 0.9 | 1.7 | 0.00 | 0.00 | 0.00 | 25 | 952.8 |
| 20260506215630 | 68 | 153 | 2.6 | 4.3 | 0.00 | 0.00 | 0.00 | 25 | 952.9 |
| 20260506215125 | 68 | 216 | 0.0 | 0.0 | 0.00 | 0.00 | 0.00 | 25 | 953.2 |
| 20260506214622 | 70 | 48 | 1.7 | 1.7 | 0.00 | 0.00 | 0.00 | 24 | 953.2 |
| 20260506214120 | 68 | 21 | 0.0 | 0.0 | 0.00 | 0.00 | 0.00 | 26 | 953.3 |
| 20260506213618 | 67 | 92 | 2.6 | 4.3 | 0.00 | 0.00 | 0.00 | 25 | 953.3 |
| 20260506213114 | 66 | 44 | 1.7 | 1.7 | 0.00 | 0.00 | 0.00 | 25 | 953.2 |
| 20260506212612 | 67 | 109 | 1.7 | 2.6 | 0.00 | 0.00 | 0.00 | 25 | 953.6 |
| 20260506212106 | 67 | 85 | 1.7 | 1.7 | 0.00 | 0.00 | 0.00 | 25 | 953.6 |
| 20260506211602 | 67 | 154 | 0.9 | 1.7 | 0.00 | 0.00 | 0.00 | 25 | 953.7 |
| 20260506211100 | 66 | 359 | 0.9 | 0.9 | 0.00 | 0.00 | 0.00 | 26 | 953.8 |
| 20260506210556 | 67 | 120 | 0.9 | 1.7 | 0.00 | 0.00 | 0.00 | 25 | 953.8 |
| 20260506210053 | 67 | 140 | 2.6 | 2.6 | 0.00 | 0.00 | 0.00 | 25 | 953.7 |
| 20260506205549 | 66 | 59 | 0.9 | 0.9 | 0.00 | 0.00 | 0.00 | 26 | 953.7 |
| 20260506205044 | 66 | 25 | 1.7 | 2.6 | 0.00 | 0.00 | 0.00 | 25 | 953.8 |
| 20260506204543 | 67 | 93 | 0.9 | 1.7 | 0.00 | 0.00 | 0.00 | 24 | 953.8 |
| 20260506204040 | 66 | 81 | 0.9 | 1.7 | 0.00 | 0.00 | 0.00 | 26 | 953.7 |
| 20260506203538 | 65 | 88 | 1.7 | 1.7 | 0.00 | 0.00 | 0.00 | 25 | 953.8 |
| 20260506203034 | 66 | 96 | 3.5 | 4.3 | 0.00 | 0.00 | 0.00 | 25 | 954.0 |
| 20260506202532 | 65 | 75 | 0.9 | 2.6 | 0.00 | 0.00 | 0.00 | 25 | 954.0 |
| 20260506202028 | 66 | 113 | 0.9 | 1.7 | 0.00 | 0.00 | 0.00 | 25 | 954.1 |
| 20260506201526 | 66 | 114 | 0.9 | 1.7 | 0.00 | 0.00 | 0.00 | 26 | 953.9 |
| 20260506201022 | 66 | 15 | 0.9 | 1.7 | 0.00 | 0.00 | 0.00 | 26 | 954.2 |
| 20260506200518 | 65 | 131 | 0.9 | 1.7 | 0.00 | 0.00 | 0.00 | 25 | 954.2 |
| 20260506200015 | 65 | 140 | 1.7 | 2.6 | 0.00 | 0.00 | 0.00 | 27 | 954.3 |
| 20260506195513 | 64 | 99 | 0.9 | 0.9 | 0.00 | 0.00 | 0.00 | 27 | 954.3 |
| 20260506195008 | 63 | 119 | 0.9 | 0.9 | 0.00 | 0.00 | 0.00 | 27 | 954.3 |
| 20260506194506 | 63 | 110 | 0.9 | 1.7 | 0.00 | 0.00 | 0.00 | 28 | 954.1 |
| 20260506194002 | 63 | 212 | 1.7 | 2.6 | 0.00 | 0.00 | 0.00 | 27 | 954.5 |
| 20260506193500 | 62 | 179 | 3.5 | 4.3 | 0.00 | 0.00 | 0.00 | 26 | 954.5 |
| 20260506192956 | 64 | 169 | 3.5 | 5.2 | 0.00 | 0.00 | 0.00 | 25 | 954.5 |
| 20260506192453 | 63 | 72 | 0.9 | 1.7 | 0.00 | 0.00 | 0.00 | 28 | 954.6 |
| 20260506191944 | 63 | 102 | 1.7 | 2.6 | 0.00 | 0.00 | 0.00 | 28 | 954.5 |
| 20260506191441 | 63 | 63 | 3.5 | 5.2 | 0.00 | 0.00 | 0.00 | 28 | 954.5 |
| 20260506190937 | 62 | 81 | 0.9 | 1.7 | 0.00 | 0.00 | 0.00 | 28 | 954.5 |
| 20260506190434 | 63 | 89 | 1.7 | 1.7 | 0.00 | 0.00 | 0.00 | 27 | 954.9 |
| 20260506185931 | 63 | 23 | 2.6 | 5.2 | 0.00 | 0.00 | 0.00 | 27 | 954.8 |
| 20260506185428 | 63 | 71 | 2.6 | 4.3 | 0.00 | 0.00 | 0.00 | 28 | 954.8 |
| 20260506184925 | 62 | 84 | 1.7 | 4.3 | 0.00 | 0.00 | 0.00 | 29 | 954.9 |
| 20260506184422 | 62 | 163 | 1.7 | 1.7 | 0.00 | 0.00 | 0.00 | 29 | 955.0 |
| 20260506183919 | 62 | 58 | 0.0 | 0.9 | 0.00 | 0.00 | 0.00 | 30 | 954.9 |
| 20260506183414 | 60 | 52 | 2.6 | 2.6 | 0.00 | 0.00 | 0.00 | 29 | 955.3 |
| 20260506182912 | 60 | 92 | 0.9 | 0.9 | 0.00 | 0.00 | 0.00 | 29 | 955.0 |
| 20260506182409 | 60 | 57 | 0.9 | 0.9 | 0.00 | 0.00 | 0.00 | 29 | 955.1 |
| 20260506181907 | 61 | 128 | 4.3 | 7.8 | 0.00 | 0.00 | 0.00 | 28 | 955.2 |
| 20260506181404 | 61 | 88 | 1.7 | 2.6 | 0.00 | 0.00 | 0.00 | 28 | 955.2 |
| 20260506180901 | 62 | 128 | 3.5 | 5.2 | 0.00 | 0.00 | 0.00 | 28 | 955.0 |
| 20260506180357 | 60 | 64 | 0.9 | 1.7 | 0.00 | 0.00 | 0.00 | 31 | 955.2 |
| 20260506175854 | 61 | 156 | 2.6 | 4.3 | 0.00 | 0.00 | 0.00 | 29 | 955.2 |
| 20260506175350 | 60 | 140 | 2.6 | 2.6 | 0.00 | 0.00 | 0.00 | 29 | 955.2 |
| 20260506174847 | 60 | 21 | 1.7 | 4.3 | 0.00 | 0.00 | 0.00 | 30 | 955.3 |
| 20260506174345 | 60 | 322 | 0.9 | 1.7 | 0.00 | 0.00 | 0.00 | 30 | 955.5 |
| 20260506173842 | 59 | 135 | 1.7 | 2.6 | 0.00 | 0.00 | 0.00 | 30 | 955.4 |
| 20260506173339 | 59 | 129 | 1.7 | 1.7 | 0.00 | 0.00 | 0.00 | 32 | 955.5 |
| 20260506172836 | 58 | 66 | 0.9 | 1.7 | 0.00 | 0.00 | 0.00 | 32 | 955.7 |
| 20260506172333 | 57 | 91 | 0.9 | 1.7 | 0.00 | 0.00 | 0.00 | 33 | 955.6 |
| 20260506171830 | 56 | 120 | 1.7 | 2.6 | 0.00 | 0.00 | 0.00 | 33 | 955.9 |
| 20260506171327 | 56 | 107 | 2.6 | 4.3 | 0.00 | 0.00 | 0.00 | 35 | 956.0 |
| 20260506170825 | 57 | 101 | 1.7 | 2.6 | 0.00 | 0.00 | 0.00 | 33 | 956.0 |
| 20260506170320 | 56 | 116 | 0.9 | 0.9 | 0.00 | 0.00 | 0.00 | 34 | 956.1 |
| 20260506165820 | 55 | 75 | 0.0 | 0.9 | 0.00 | 0.00 | 0.00 | 35 | 956.1 |
| 20260506165317 | 55 | 139 | 1.7 | 2.6 | 0.00 | 0.00 | 0.00 | 35 | 956.2 |
| 20260506164813 | 55 | 120 | 0.9 | 1.7 | 0.00 | 0.00 | 0.00 | 35 | 956.2 |
| 20260506164310 | 55 | 82 | 2.6 | 2.6 | 0.00 | 0.00 | 0.00 | 35 | 956.3 |
| 20260506163807 | 55 | 108 | 1.7 | 1.7 | 0.00 | 0.00 | 0.00 | 36 | 956.1 |
| 20260506163302 | 54 | 115 | 0.9 | 1.7 | 0.00 | 0.00 | 0.00 | 36 | 956.2 |
| 20260506162758 | 53 | 133 | 4.3 | 6.1 | 0.00 | 0.00 | 0.00 | 36 | 956.4 |
| 20260506162256 | 52 | 61 | 0.0 | 0.9 | 0.00 | 0.00 | 0.00 | 37 | 956.5 |
| 20260506161753 | 51 | 97 | 2.6 | 2.6 | 0.00 | 0.00 | 0.00 | 38 | 956.4 |
| 20260506161250 | 52 | 130 | 1.7 | 1.7 | 0.00 | 0.00 | 0.00 | 37 | 956.4 |
| 20260506160748 | 52 | 103 | 1.7 | 1.7 | 0.00 | 0.00 | 0.00 | 37 | 956.5 |
| 20260506160244 | 51 | 127 | 1.7 | 1.7 | 0.00 | 0.00 | 0.00 | 38 | 956.7 |
| 20260506155743 | 51 | 76 | 1.7 | 1.7 | 0.00 | 0.00 | 0.00 | 38 | 956.5 |
| 20260506155239 | 50 | 69 | 2.6 | 4.3 | 0.00 | 0.00 | 0.00 | 39 | 956.6 |
| 20260506153347 | 49 | 53 | 2.6 | 4.3 | 0.00 | 0.00 | 0.00 | 39 | 957.0 |
| 20260506152843 | 49 | 119 | 1.7 | 2.6 | 0.00 | 0.00 | 0.00 | 39 | 956.9 |
| 20260506152341 | 49 | 144 | 2.6 | 2.6 | 0.00 | 0.00 | 0.00 | 39 | 956.9 |
| 20260506151839 | 48 | 307 | 0.9 | 0.9 | 0.00 | 0.00 | 0.00 | 39 | 957.0 |
| 20260506151335 | 48 | 57 | 0.0 | 0.9 | 0.00 | 0.00 | 0.00 | 40 | 957.1 |
| 20260506150833 | 47 | 86 | 2.6 | 4.3 | 0.00 | 0.00 | 0.00 | 40 | 957.1 |
| 20260506150329 | 48 | 125 | 0.9 | 1.7 | 0.00 | 0.00 | 0.00 | 40 | 957.1 |
| 20260506145826 | 47 | 118 | 1.7 | 1.7 | 0.00 | 0.00 | 0.00 | 40 | 957.2 |
| 20260506145322 | 46 | 33 | 0.9 | 1.7 | 0.00 | 0.00 | 0.00 | 42 | 957.3 |
| 20260506144820 | 45 | 158 | 0.9 | 1.7 | 0.00 | 0.00 | 0.00 | 42 | 957.3 |
| 20260506144317 | 44 | 142 | 0.9 | 1.7 | 0.00 | 0.00 | 0.00 | 43 | 957.6 |
| 20260506143815 | 44 | 71 | 0.9 | 2.6 | 0.00 | 0.00 | 0.00 | 43 | 957.6 |